AFR51ZX LFPO-LFBO
Flight info
| Callsign | AFR51ZX |
|---|---|
| Flight time | 0h 55m |
| Altitude | 35000 |
| Route | ERIXU DCT ETAMO DCT GUERE DCT NARAK |
| Aircraft | A321/M-SDE3FGHIRWY/LB1 |
Departure
| Time | 2026-05-05 16:22 |
|---|---|
| Airport | Paris-Orly Airport (LFPO) |
Arrival
| Time | 2026-05-05 17:17 |
|---|---|
| Airport | Toulouse-Blagnac Airport (LFBO) |
| Time | Latitude | Longitude | Altitude | Speed | Heading |
|---|---|---|---|---|---|
| 2026-05-05 15:29 | 48.72725 | 2.35711 | 294 ft | 0 kts | 148° |
| 2026-05-05 16:11 | 48.72743 | 2.35693 | 300 ft | 4 kts | 147° |
| 2026-05-05 16:11 | 48.72781 | 2.35618 | 302 ft | 3 kts | 123° |
| 2026-05-05 16:12 | 48.72794 | 2.35592 | 302 ft | 4 kts | 141° |
| 2026-05-05 16:12 | 48.72834 | 2.35567 | 298 ft | 0 kts | 164° |
| 2026-05-05 16:15 | 48.72785 | 2.35586 | 297 ft | 7 kts | 173° |
| 2026-05-05 16:15 | 48.72717 | 2.35500 | 297 ft | 11 kts | 191° |
| 2026-05-05 16:16 | 48.72583 | 2.35547 | 298 ft | 9 kts | 164° |
| 2026-05-05 16:16 | 48.72477 | 2.35592 | 297 ft | 9 kts | 165° |
| 2026-05-05 16:17 | 48.72373 | 2.35635 | 296 ft | 6 kts | 164° |
| 2026-05-05 16:17 | 48.72336 | 2.35633 | 296 ft | 4 kts | 194° |
| 2026-05-05 16:18 | 48.72281 | 2.35609 | 299 ft | 3 kts | 196° |
| 2026-05-05 16:18 | 48.72234 | 2.35600 | 298 ft | 8 kts | 176° |
| 2026-05-05 16:18 | 48.72172 | 2.35624 | 296 ft | 6 kts | 165° |
| 2026-05-05 16:19 | 48.72137 | 2.35638 | 298 ft | 5 kts | 165° |
| 2026-05-05 16:19 | 48.72076 | 2.35678 | 298 ft | 12 kts | 146° |
| 2026-05-05 16:19 | 48.72005 | 2.35812 | 297 ft | 6 kts | 121° |
| 2026-05-05 16:20 | 48.71965 | 2.35988 | 296 ft | 7 kts | 78° |
| 2026-05-05 16:20 | 48.72097 | 2.36701 | 299 ft | 92 kts | 75° |
| 2026-05-05 16:21 | 48.72629 | 2.39583 | 487 ft | 170 kts | 71° |
| 2026-05-05 16:22 | 48.73575 | 2.44728 | 2700 ft | 167 kts | 71° |
| 2026-05-05 16:22 | 48.74039 | 2.48218 | 3732 ft | 183 kts | 84° |
| 2026-05-05 16:23 | 48.74192 | 2.52516 | 4109 ft | 227 kts | 84° |
| 2026-05-05 16:23 | 48.74289 | 2.55043 | 4346 ft | 251 kts | 86° |
| 2026-05-05 16:23 | 48.72583 | 2.59630 | 5773 ft | 278 kts | 149° |
| 2026-05-05 16:24 | 48.70751 | 2.60667 | 6567 ft | 284 kts | 164° |
| 2026-05-05 16:24 | 48.68825 | 2.61315 | 7416 ft | 284 kts | 167° |
| 2026-05-05 16:24 | 48.64891 | 2.61270 | 8936 ft | 292 kts | 197° |
| 2026-05-05 16:25 | 48.63041 | 2.59989 | 9684 ft | 296 kts | 213° |
| 2026-05-05 16:25 | 48.60047 | 2.55416 | 10342 ft | 327 kts | 231° |
| 2026-05-05 16:25 | 48.58540 | 2.52698 | 10460 ft | 348 kts | 231° |
| 2026-05-05 16:26 | 48.55324 | 2.46821 | 11160 ft | 372 kts | 231° |
| 2026-05-05 16:26 | 48.51734 | 2.41091 | 12367 ft | 381 kts | 217° |
| 2026-05-05 16:27 | 48.49506 | 2.38919 | 13018 ft | 383 kts | 209° |
| 2026-05-05 16:27 | 48.47196 | 2.36895 | 13609 ft | 386 kts | 209° |
| 2026-05-05 16:27 | 48.44865 | 2.34848 | 14171 ft | 389 kts | 210° |
| 2026-05-05 16:27 | 48.42520 | 2.32781 | 14757 ft | 391 kts | 209° |
| 2026-05-05 16:28 | 48.40177 | 2.30712 | 15351 ft | 389 kts | 210° |
| 2026-05-05 16:28 | 48.37846 | 2.28650 | 15983 ft | 388 kts | 210° |
| 2026-05-05 16:28 | 48.35511 | 2.26592 | 16493 ft | 390 kts | 210° |
| 2026-05-05 16:28 | 48.33162 | 2.24539 | 16944 ft | 392 kts | 208° |
| 2026-05-05 16:29 | 48.30656 | 2.22914 | 17373 ft | 394 kts | 197° |
| 2026-05-05 16:29 | 48.27976 | 2.22034 | 17800 ft | 396 kts | 186° |
| 2026-05-05 16:29 | 48.25215 | 2.21945 | 18188 ft | 398 kts | 175° |
| 2026-05-05 16:29 | 48.22472 | 2.22545 | 18539 ft | 400 kts | 170° |
| 2026-05-05 16:30 | 48.19715 | 2.23232 | 18878 ft | 403 kts | 171° |
| 2026-05-05 16:30 | 48.16948 | 2.23904 | 19383 ft | 401 kts | 172° |
| 2026-05-05 16:30 | 48.14194 | 2.24565 | 19769 ft | 403 kts | 172° |
| 2026-05-05 16:30 | 48.11435 | 2.25225 | 20258 ft | 401 kts | 172° |
| 2026-05-05 16:31 | 48.08663 | 2.25871 | 20636 ft | 404 kts | 173° |
| 2026-05-05 16:31 | 48.05847 | 2.26144 | 20985 ft | 407 kts | 178° |
| 2026-05-05 16:31 | 48.03007 | 2.26324 | 21331 ft | 410 kts | 178° |
| 2026-05-05 16:31 | 48.00161 | 2.26501 | 21842 ft | 409 kts | 178° |
| 2026-05-05 16:32 | 47.97308 | 2.26680 | 22280 ft | 411 kts | 176° |
| 2026-05-05 16:32 | 47.94449 | 2.26862 | 22710 ft | 412 kts | 176° |
| 2026-05-05 16:32 | 47.91578 | 2.27046 | 23035 ft | 416 kts | 176° |
| 2026-05-05 16:32 | 47.88670 | 2.27230 | 23375 ft | 420 kts | 176° |
| 2026-05-05 16:33 | 47.85744 | 2.27415 | 23695 ft | 423 kts | 176° |
| 2026-05-05 16:33 | 47.82790 | 2.27601 | 24028 ft | 425 kts | 176° |
| 2026-05-05 16:33 | 47.79831 | 2.27786 | 24384 ft | 427 kts | 176° |
| 2026-05-05 16:33 | 47.76852 | 2.27971 | 24744 ft | 429 kts | 176° |
| 2026-05-05 16:34 | 47.73872 | 2.28155 | 25109 ft | 430 kts | 176° |
| 2026-05-05 16:34 | 47.70884 | 2.28343 | 25436 ft | 431 kts | 176° |
| 2026-05-05 16:34 | 47.67874 | 2.28536 | 25763 ft | 433 kts | 176° |
| 2026-05-05 16:34 | 47.64858 | 2.28727 | 26086 ft | 435 kts | 175° |
| 2026-05-05 16:35 | 47.61834 | 2.28918 | 26402 ft | 437 kts | 176° |
| 2026-05-05 16:35 | 47.58790 | 2.29110 | 26716 ft | 439 kts | 175° |
| 2026-05-05 16:35 | 47.55729 | 2.29302 | 27043 ft | 440 kts | 176° |
| 2026-05-05 16:35 | 47.52669 | 2.29492 | 27388 ft | 441 kts | 175° |
| 2026-05-05 16:36 | 47.49599 | 2.29686 | 27709 ft | 442 kts | 175° |
| 2026-05-05 16:36 | 47.46521 | 2.29882 | 28007 ft | 444 kts | 176° |
| 2026-05-05 16:36 | 47.43423 | 2.30078 | 28279 ft | 446 kts | 176° |
| 2026-05-05 16:36 | 47.40315 | 2.30273 | 28541 ft | 448 kts | 175° |
| 2026-05-05 16:37 | 47.37194 | 2.30471 | 28806 ft | 450 kts | 175° |
| 2026-05-05 16:37 | 47.34068 | 2.30668 | 29139 ft | 449 kts | 176° |
| 2026-05-05 16:37 | 47.30943 | 2.30861 | 29410 ft | 449 kts | 175° |
| 2026-05-05 16:37 | 47.27822 | 2.31053 | 29707 ft | 449 kts | 176° |
| 2026-05-05 16:38 | 47.24706 | 2.31244 | 30000 ft | 448 kts | 176° |
| 2026-05-05 16:38 | 47.21598 | 2.31436 | 30263 ft | 447 kts | 176° |
| 2026-05-05 16:38 | 47.18493 | 2.31630 | 30557 ft | 445 kts | 176° |
| 2026-05-05 16:38 | 47.15398 | 2.31822 | 30837 ft | 444 kts | 176° |
| 2026-05-05 16:39 | 47.12313 | 2.32013 | 31084 ft | 444 kts | 176° |
| 2026-05-05 16:39 | 47.09221 | 2.32203 | 31352 ft | 444 kts | 176° |
| 2026-05-05 16:39 | 47.06137 | 2.32393 | 31620 ft | 443 kts | 176° |
| 2026-05-05 16:39 | 47.03067 | 2.32584 | 31906 ft | 442 kts | 176° |
| 2026-05-05 16:40 | 46.99997 | 2.32774 | 32166 ft | 441 kts | 177° |
| 2026-05-05 16:40 | 46.96929 | 2.32961 | 32424 ft | 441 kts | 177° |
| 2026-05-05 16:40 | 46.93862 | 2.33147 | 32704 ft | 440 kts | 177° |
| 2026-05-05 16:40 | 46.90816 | 2.33330 | 33008 ft | 438 kts | 177° |
| 2026-05-05 16:41 | 46.87778 | 2.33516 | 33293 ft | 437 kts | 177° |
| 2026-05-05 16:41 | 46.84741 | 2.33526 | 33532 ft | 436 kts | 184° |
| 2026-05-05 16:41 | 46.81743 | 2.32877 | 33769 ft | 436 kts | 193° |
| 2026-05-05 16:41 | 46.78810 | 2.31760 | 33984 ft | 436 kts | 194° |
| 2026-05-05 16:42 | 46.75882 | 2.30624 | 34171 ft | 436 kts | 194° |
| 2026-05-05 16:42 | 46.72951 | 2.29485 | 34348 ft | 436 kts | 194° |
| 2026-05-05 16:42 | 46.70024 | 2.28352 | 34528 ft | 435 kts | 194° |
| 2026-05-05 16:42 | 46.67096 | 2.27224 | 34718 ft | 435 kts | 194° |
| 2026-05-05 16:43 | 46.64166 | 2.26103 | 34840 ft | 435 kts | 194° |
| 2026-05-05 16:43 | 46.61245 | 2.24990 | 34873 ft | 433 kts | 194° |
| 2026-05-05 16:43 | 46.55438 | 2.22773 | 34871 ft | 431 kts | 194° |
| 2026-05-05 16:44 | 46.49651 | 2.20558 | 34874 ft | 429 kts | 195° |
| 2026-05-05 16:44 | 46.43885 | 2.18355 | 34873 ft | 428 kts | 194° |
| 2026-05-05 16:45 | 46.38120 | 2.16165 | 34875 ft | 428 kts | 194° |
| 2026-05-05 16:45 | 46.32362 | 2.13988 | 34868 ft | 428 kts | 195° |
| 2026-05-05 16:46 | 46.26606 | 2.11818 | 34875 ft | 428 kts | 194° |
| 2026-05-05 16:46 | 46.20847 | 2.09650 | 34881 ft | 428 kts | 195° |
| 2026-05-05 16:47 | 46.14982 | 2.08202 | 34879 ft | 428 kts | 188° |
| 2026-05-05 16:47 | 46.09071 | 2.07105 | 34883 ft | 428 kts | 188° |
| 2026-05-05 16:48 | 46.03156 | 2.06012 | 34885 ft | 428 kts | 188° |
| 2026-05-05 16:48 | 45.97237 | 2.04925 | 34897 ft | 429 kts | 188° |
| 2026-05-05 16:49 | 45.91319 | 2.03834 | 34904 ft | 429 kts | 188° |
| 2026-05-05 16:49 | 45.85389 | 2.02741 | 34905 ft | 429 kts | 188° |
| 2026-05-05 16:50 | 45.80470 | 2.01843 | 34909 ft | 429 kts | 188° |
| 2026-05-05 16:50 | 45.74547 | 2.00750 | 34908 ft | 429 kts | 189° |
| 2026-05-05 16:51 | 45.68581 | 1.99667 | 34911 ft | 429 kts | 188° |
| 2026-05-05 16:51 | 45.62655 | 1.98590 | 34916 ft | 430 kts | 188° |
| 2026-05-05 16:52 | 45.56714 | 1.97511 | 34924 ft | 430 kts | 188° |
| 2026-05-05 16:52 | 45.50783 | 1.96433 | 34932 ft | 430 kts | 189° |
| 2026-05-05 16:53 | 45.44854 | 1.95356 | 34938 ft | 429 kts | 189° |
| 2026-05-05 16:53 | 45.38925 | 1.94281 | 34944 ft | 429 kts | 189° |
| 2026-05-05 16:54 | 45.33006 | 1.93206 | 34967 ft | 428 kts | 189° |
| 2026-05-05 16:54 | 45.27094 | 1.92137 | 34958 ft | 428 kts | 189° |
| 2026-05-05 16:55 | 45.21180 | 1.91081 | 34951 ft | 428 kts | 189° |
| 2026-05-05 16:55 | 45.15271 | 1.90027 | 34947 ft | 428 kts | 189° |
| 2026-05-05 16:56 | 45.09361 | 1.88964 | 34945 ft | 427 kts | 189° |
| 2026-05-05 16:56 | 45.03448 | 1.87908 | 33988 ft | 434 kts | 189° |
| 2026-05-05 16:57 | 45.00421 | 1.87363 | 32726 ft | 442 kts | 189° |
| 2026-05-05 16:57 | 44.97355 | 1.86814 | 31663 ft | 446 kts | 189° |
| 2026-05-05 16:57 | 44.94293 | 1.86271 | 30946 ft | 441 kts | 189° |
| 2026-05-05 16:57 | 44.91259 | 1.85737 | 30172 ft | 438 kts | 188° |
| 2026-05-05 16:58 | 44.88259 | 1.85211 | 29516 ft | 430 kts | 188° |
| 2026-05-05 16:58 | 44.85320 | 1.84694 | 28956 ft | 421 kts | 188° |
| 2026-05-05 16:58 | 44.82443 | 1.84188 | 28402 ft | 413 kts | 188° |
| 2026-05-05 16:58 | 44.79613 | 1.83689 | 27852 ft | 406 kts | 188° |
| 2026-05-05 16:59 | 44.76837 | 1.83198 | 27317 ft | 399 kts | 188° |
| 2026-05-05 16:59 | 44.74104 | 1.82714 | 26795 ft | 393 kts | 188° |
| 2026-05-05 16:59 | 44.71412 | 1.82237 | 26283 ft | 387 kts | 188° |
| 2026-05-05 16:59 | 44.68762 | 1.81766 | 25780 ft | 381 kts | 188° |
| 2026-05-05 17:00 | 44.66147 | 1.81303 | 25288 ft | 375 kts | 188° |
| 2026-05-05 17:00 | 44.63584 | 1.80849 | 24788 ft | 369 kts | 187° |
| 2026-05-05 17:00 | 44.61058 | 1.80402 | 24329 ft | 362 kts | 187° |
| 2026-05-05 17:00 | 44.58585 | 1.79964 | 23865 ft | 356 kts | 187° |
| 2026-05-05 17:01 | 44.56141 | 1.79534 | 23421 ft | 351 kts | 187° |
| 2026-05-05 17:01 | 44.53728 | 1.79114 | 22947 ft | 348 kts | 187° |
| 2026-05-05 17:01 | 44.51332 | 1.78697 | 22546 ft | 346 kts | 187° |
| 2026-05-05 17:01 | 44.48940 | 1.78278 | 22146 ft | 345 kts | 187° |
| 2026-05-05 17:02 | 44.46572 | 1.77865 | 21757 ft | 342 kts | 187° |
| 2026-05-05 17:02 | 44.44219 | 1.77457 | 21385 ft | 340 kts | 187° |
| 2026-05-05 17:02 | 44.41870 | 1.77053 | 21001 ft | 338 kts | 187° |
| 2026-05-05 17:02 | 44.39541 | 1.76651 | 20619 ft | 336 kts | 188° |
| 2026-05-05 17:03 | 44.37230 | 1.76244 | 20235 ft | 334 kts | 188° |
| 2026-05-05 17:03 | 44.34934 | 1.75842 | 19868 ft | 332 kts | 188° |
| 2026-05-05 17:03 | 44.32645 | 1.75439 | 19463 ft | 330 kts | 188° |
| 2026-05-05 17:03 | 44.30412 | 1.74788 | 19071 ft | 327 kts | 198° |
| 2026-05-05 17:04 | 44.28306 | 1.73577 | 18665 ft | 335 kts | 208° |
| 2026-05-05 17:04 | 44.26302 | 1.71812 | 18199 ft | 344 kts | 214° |
| 2026-05-05 17:04 | 44.24328 | 1.69912 | 17702 ft | 345 kts | 214° |
| 2026-05-05 17:04 | 44.22350 | 1.68021 | 17242 ft | 344 kts | 214° |
| 2026-05-05 17:05 | 44.20381 | 1.66143 | 16780 ft | 342 kts | 214° |
| 2026-05-05 17:05 | 44.18421 | 1.64269 | 16325 ft | 340 kts | 214° |
| 2026-05-05 17:05 | 44.16476 | 1.62411 | 15882 ft | 339 kts | 214° |
| 2026-05-05 17:05 | 44.14541 | 1.60560 | 15421 ft | 337 kts | 214° |
| 2026-05-05 17:06 | 44.12614 | 1.58719 | 14990 ft | 335 kts | 215° |
| 2026-05-05 17:06 | 44.10696 | 1.56889 | 14552 ft | 333 kts | 215° |
| 2026-05-05 17:06 | 44.08842 | 1.55125 | 14117 ft | 332 kts | 215° |
| 2026-05-05 17:06 | 44.06943 | 1.53322 | 13670 ft | 330 kts | 215° |
| 2026-05-05 17:07 | 44.05048 | 1.51525 | 13206 ft | 329 kts | 215° |
| 2026-05-05 17:07 | 44.03164 | 1.49735 | 12767 ft | 327 kts | 215° |
| 2026-05-05 17:07 | 44.01293 | 1.47956 | 12327 ft | 326 kts | 215° |
| 2026-05-05 17:07 | 43.99325 | 1.46415 | 11888 ft | 325 kts | 204° |
| 2026-05-05 17:08 | 43.97148 | 1.45559 | 11461 ft | 327 kts | 191° |
| 2026-05-05 17:08 | 43.94881 | 1.45452 | 10961 ft | 328 kts | 177° |
| 2026-05-05 17:08 | 43.92619 | 1.45817 | 10472 ft | 327 kts | 176° |
| 2026-05-05 17:08 | 43.90406 | 1.46169 | 10303 ft | 312 kts | 176° |
| 2026-05-05 17:09 | 43.88296 | 1.46499 | 10184 ft | 298 kts | 176° |
| 2026-05-05 17:09 | 43.86269 | 1.46816 | 9967 ft | 288 kts | 176° |
| 2026-05-05 17:09 | 43.84301 | 1.47121 | 9794 ft | 284 kts | 177° |
| 2026-05-05 17:09 | 43.82335 | 1.47418 | 9513 ft | 284 kts | 177° |
| 2026-05-05 17:10 | 43.80377 | 1.47713 | 9090 ft | 281 kts | 177° |
| 2026-05-05 17:10 | 43.78435 | 1.48003 | 8664 ft | 280 kts | 177° |
| 2026-05-05 17:10 | 43.76503 | 1.48294 | 8236 ft | 279 kts | 177° |
| 2026-05-05 17:10 | 43.74579 | 1.48590 | 7809 ft | 278 kts | 177° |
| 2026-05-05 17:11 | 43.72657 | 1.48886 | 7385 ft | 277 kts | 176° |
| 2026-05-05 17:11 | 43.70747 | 1.49176 | 6962 ft | 276 kts | 177° |
| 2026-05-05 17:11 | 43.68846 | 1.49465 | 6541 ft | 275 kts | 176° |
| 2026-05-05 17:11 | 43.66950 | 1.49755 | 6109 ft | 274 kts | 176° |
| 2026-05-05 17:12 | 43.65063 | 1.50044 | 5680 ft | 272 kts | 177° |
| 2026-05-05 17:12 | 43.63180 | 1.50333 | 5262 ft | 271 kts | 176° |
| 2026-05-05 17:12 | 43.61307 | 1.50622 | 4847 ft | 271 kts | 177° |
| 2026-05-05 17:12 | 43.59430 | 1.50911 | 4429 ft | 271 kts | 177° |
| 2026-05-05 17:13 | 43.57594 | 1.51193 | 4285 ft | 258 kts | 177° |
| 2026-05-05 17:13 | 43.55866 | 1.51443 | 4167 ft | 245 kts | 181° |
| 2026-05-05 17:13 | 43.54286 | 1.50954 | 4052 ft | 223 kts | 217° |
| 2026-05-05 17:13 | 43.53304 | 1.49415 | 4000 ft | 213 kts | 251° |
| 2026-05-05 17:14 | 43.53128 | 1.47503 | 4008 ft | 192 kts | 280° |
| 2026-05-05 17:14 | 43.53635 | 1.45912 | 3922 ft | 177 kts | 307° |
| 2026-05-05 17:14 | 43.54547 | 1.44838 | 3741 ft | 171 kts | 320° |
| 2026-05-05 17:14 | 43.55508 | 1.43843 | 3192 ft | 179 kts | 320° |
| 2026-05-05 17:15 | 43.56504 | 1.42809 | 2721 ft | 172 kts | 320° |
| 2026-05-05 17:15 | 43.57445 | 1.41842 | 2216 ft | 166 kts | 319° |
| 2026-05-05 17:15 | 43.58379 | 1.40869 | 1441 ft | 175 kts | 319° |
| 2026-05-05 17:15 | 43.59305 | 1.39910 | 1196 ft | 157 kts | 320° |
| 2026-05-05 17:16 | 43.60154 | 1.39026 | 900 ft | 148 kts | 316° |
| 2026-05-05 17:16 | 43.60948 | 1.38189 | 726 ft | 140 kts | 319° |
| 2026-05-05 17:16 | 43.61714 | 1.37405 | 572 ft | 134 kts | 319° |
| 2026-05-05 17:16 | 43.62438 | 1.36648 | 489 ft | 120 kts | 322° |
| 2026-05-05 17:17 | 43.62948 | 1.36106 | 488 ft | 66 kts | 323° |
| 2026-05-05 17:17 | 43.63211 | 1.35842 | 487 ft | 39 kts | 323° |
| 2026-05-05 17:17 | 43.63388 | 1.35658 | 489 ft | 22 kts | 322° |
| 2026-05-05 17:17 | 43.63496 | 1.35546 | 492 ft | 17 kts | 322° |
| 2026-05-05 17:18 | 43.63596 | 1.35535 | 487 ft | 15 kts | 44° |
| 2026-05-05 17:18 | 43.63659 | 1.35646 | 492 ft | 14 kts | 56° |
| 2026-05-05 17:18 | 43.63715 | 1.35752 | 489 ft | 13 kts | 52° |
| 2026-05-05 17:18 | 43.63768 | 1.35846 | 490 ft | 12 kts | 50° |
| 2026-05-05 17:19 | 43.63814 | 1.35932 | 488 ft | 10 kts | 67° |
| 2026-05-05 17:19 | 43.63790 | 1.36014 | 487 ft | 9 kts | 131° |
| 2026-05-05 17:19 | 43.63745 | 1.36066 | 491 ft | 8 kts | 142° |
| 2026-05-05 17:19 | 43.63703 | 1.36110 | 489 ft | 7 kts | 142° |
| 2026-05-05 17:20 | 43.63666 | 1.36148 | 492 ft | 6 kts | 144° |
| 2026-05-05 17:20 | 43.63632 | 1.36184 | 490 ft | 8 kts | 142° |
| 2026-05-05 17:20 | 43.63579 | 1.36240 | 487 ft | 11 kts | 142° |
| 2026-05-05 17:20 | 43.63498 | 1.36325 | 489 ft | 15 kts | 143° |
| 2026-05-05 17:21 | 43.63414 | 1.36411 | 492 ft | 15 kts | 143° |
| 2026-05-05 17:21 | 43.63333 | 1.36495 | 483 ft | 14 kts | 143° |
| 2026-05-05 17:21 | 43.63255 | 1.36575 | 485 ft | 14 kts | 143° |
| 2026-05-05 17:22 | 43.63112 | 1.36724 | 487 ft | 12 kts | 143° |
| 2026-05-05 17:22 | 43.63046 | 1.36793 | 489 ft | 12 kts | 143° |
| 2026-05-05 17:22 | 43.62982 | 1.36859 | 494 ft | 11 kts | 143° |
| 2026-05-05 17:22 | 43.62941 | 1.36901 | 488 ft | 11 kts | 143° |
| 2026-05-05 17:23 | 43.62866 | 1.36978 | 491 ft | 10 kts | 143° |
| 2026-05-05 17:23 | 43.62834 | 1.37047 | 491 ft | 8 kts | 97° |
| 2026-05-05 17:23 | 43.62856 | 1.37113 | 489 ft | 7 kts | 56° |